Time;durP1;ratioP1;P1;durP2;ratioP2;P2;SDS_P1;SDS_P2;PMS_P1;PMS_P2;Temp;Humidity;BMP_temperature;BMP_pressure;BME280_temperature;BME280_humidity;BME280_pressure;Samples;Min_cycle;Max_cycle;Signal;HPM_P1;HPM_P2
2021/07/18 00:00:08;;;;;;;4.55;2.72;;;17.90;90.50;;;;;;5039456;28;20037;-78
2021/07/18 00:02:34;;;;;;;7.32;2.92;;;17.90;90.30;;;;;;5048936;28;20048;-79
2021/07/18 00:04:59;;;;;;;8.35;3.30;;;17.90;88.30;;;;;;5042078;28;20449;-79
2021/07/18 00:07:25;;;;;;;13.98;3.45;;;17.90;90.80;;;;;;5017470;28;20028;-80
2021/07/18 00:09:50;;;;;;;5.07;2.95;;;17.70;90.30;;;;;;5040765;28;20484;-79
2021/07/18 00:12:16;;;;;;;11.73;3.80;;;17.60;90.70;;;;;;5037845;28;20044;-79
2021/07/18 00:14:42;;;;;;;4.30;3.30;;;17.60;90.50;;;;;;5027565;28;20028;-79
2021/07/18 00:17:08;;;;;;;5.22;3.97;;;17.70;92.10;;;;;;5055249;28;20434;-78
2021/07/18 00:19:34;;;;;;;6.22;3.10;;;17.80;90.30;;;;;;5050033;28;20040;-79
2021/07/18 00:21:59;;;;;;;7.53;3.28;;;17.80;91.60;;;;;;5030473;28;20029;-79
2021/07/18 00:24:25;;;;;;;4.78;3.60;;;17.70;91.50;;;;;;5012912;28;20109;-80
2021/07/18 00:26:50;;;;;;;7.82;3.13;;;17.60;91.40;;;;;;5020962;28;20043;-79
2021/07/18 00:29:16;;;;;;;3.85;3.22;;;17.60;92.40;;;;;;5023315;28;20025;-78
2021/07/18 00:31:41;;;;;;;8.63;3.67;;;17.60;91.00;;;;;;5064799;28;20060;-79
2021/07/18 00:34:07;;;;;;;5.40;3.33;;;17.50;93.30;;;;;;5024457;28;20099;-78
2021/07/18 00:36:32;;;;;;;5.30;3.60;;;17.40;92.70;;;;;;5021520;28;20488;-80
2021/07/18 00:38:58;;;;;;;9.48;3.38;;;17.40;90.90;;;;;;5046917;28;20520;-79
2021/07/18 00:41:24;;;;;;;7.03;3.60;;;17.40;91.40;;;;;;5033312;28;20496;-79
2021/07/18 00:43:49;;;;;;;8.02;3.55;;;17.30;92.00;;;;;;5030444;28;20036;-80
2021/07/18 00:46:15;;;;;;;12.80;3.72;;;17.20;92.50;;;;;;5032307;28;20037;-78
2021/07/18 00:48:40;;;;;;;8.32;3.92;;;17.10;92.20;;;;;;5035696;28;20484;-79
2021/07/18 00:51:06;;;;;;;5.68;3.63;;;17.10;92.40;;;;;;5047061;28;20404;-79
2021/07/18 00:53:31;;;;;;;9.13;4.10;;;17.00;93.30;;;;;;5018944;28;20598;-80
2021/07/18 00:55:57;;;;;;;8.15;3.58;;;16.90;93.80;;;;;;5031638;28;20462;-78
2021/07/18 00:58:24;;;;;;;9.60;4.68;;;16.90;93.70;;;;;;5044767;28;20070;-78
2021/07/18 01:00:49;;;;;;;9.77;4.15;;;16.90;94.40;;;;;;5014875;28;20059;-79
2021/07/18 01:03:15;;;;;;;4.65;3.90;;;17.00;93.20;;;;;;5042670;28;20040;-79
2021/07/18 01:05:40;;;;;;;5.97;4.45;;;16.90;94.70;;;;;;5018876;28;20036;-79
2021/07/18 01:08:06;;;;;;;7.93;3.97;;;16.90;93.60;;;;;;5021438;28;20030;-78
2021/07/18 01:10:32;;;;;;;10.45;4.78;;;16.90;94.30;;;;;;5023412;28;20590;-79
2021/07/18 01:12:57;;;;;;;9.32;4.50;;;17.00;93.90;;;;;;5030302;28;20084;-78
2021/07/18 01:15:24;;;;;;;10.63;4.65;;;16.90;94.60;;;;;;5041850;28;20480;-78
2021/07/18 01:17:50;;;;;;;7.47;4.50;;;16.80;93.30;;;;;;5035874;28;20035;-80
2021/07/18 01:20:16;;;;;;;6.95;4.38;;;16.80;95.20;;;;;;5028247;28;20032;-78
2021/07/18 01:22:41;;;;;;;7.68;4.35;;;16.70;93.50;;;;;;5036447;28;20443;-80
2021/07/18 01:25:09;;;;;;;8.88;4.35;;;16.60;94.00;;;;;;5050773;28;20029;-78
2021/07/18 01:27:38;;;;;;;6.97;4.22;;;16.60;94.60;;;;;;5035797;28;20028;-80
2021/07/18 01:30:07;;;;;;;6.53;4.30;;;16.70;95.70;;;;;;5021300;28;20029;-79
2021/07/18 01:32:33;;;;;;;6.43;4.47;;;16.60;95.40;;;;;;5022785;28;20547;-79
2021/07/18 01:34:58;;;;;;;8.63;4.68;;;16.60;95.00;;;;;;5039724;28;20029;-79
2021/07/18 01:37:24;;;;;;;6.55;4.72;;;16.70;96.10;;;;;;5043244;28;20134;-78
2021/07/18 01:39:49;;;;;;;7.25;4.38;;;16.60;95.30;;;;;;5013505;28;20467;-79
2021/07/18 01:42:15;;;;;;;8.00;4.72;;;16.50;94.40;;;;;;5053479;28;20069;-79
2021/07/18 01:44:42;;;;;;;8.02;4.60;;;16.60;95.90;;;;;;5017978;28;20469;-79
2021/07/18 01:47:08;;;;;;;6.13;4.63;;;16.50;96.40;;;;;;5027884;28;20125;-79
2021/07/18 01:49:33;;;;;;;6.43;5.15;;;16.40;94.90;;;;;;5014825;28;20111;-79
2021/07/18 01:51:59;;;;;;;9.23;4.50;;;16.40;94.60;;;;;;5043992;28;20043;-79
2021/07/18 01:54:24;;;;;;;6.13;4.60;;;16.40;96.00;;;;;;5024069;28;20029;-79
2021/07/18 01:56:50;;;;;;;6.53;4.47;;;16.40;95.60;;;;;;5019436;28;20056;-78
2021/07/18 01:59:16;;;;;;;12.00;5.72;;;16.40;97.10;;;;;;5054179;28;20033;-79
2021/07/18 02:01:43;;;;;;;6.15;4.57;;;16.50;94.20;;;;;;5047015;28;20395;-78
2021/07/18 02:04:13;;;;;;;11.68;5.35;;;16.60;95.50;;;;;;5044881;28;20460;-79
2021/07/18 02:06:39;;;;;;;9.57;5.15;;;16.50;97.20;;;;;;5047381;28;20144;-79
2021/07/18 02:09:05;;;;;;;9.75;5.60;;;16.40;97.00;;;;;;5036126;28;20124;-79
2021/07/18 02:11:30;;;;;;;6.32;4.63;;;16.40;95.80;;;;;;5014882;28;20108;-79
2021/07/18 02:13:59;;;;;;;8.85;4.88;;;16.50;96.60;;;;;;5021044;28;20045;-79
2021/07/18 02:16:24;;;;;;;6.63;5.20;;;16.20;95.70;;;;;;5048470;28;20108;-78
2021/07/18 02:18:50;;;;;;;6.60;5.07;;;16.30;97.90;;;;;;5026538;28;20559;-79
2021/07/18 02:21:19;;;;;;;9.80;5.35;;;16.30;95.10;;;;;;5029681;28;20510;-79
2021/07/18 02:23:45;;;;;;;7.15;5.28;;;16.20;98.50;;;;;;5039304;28;20036;-79
2021/07/18 02:26:11;;;;;;;9.38;6.13;;;16.10;95.80;;;;;;5022037;28;20041;-79
2021/07/18 02:28:36;;;;;;;7.38;5.10;;;16.20;96.40;;;;;;5034646;28;20123;-80
2021/07/18 02:31:04;;;;;;;11.30;5.88;;;16.20;98.00;;;;;;5046496;28;20036;-78
2021/07/18 02:33:30;;;;;;;9.55;5.28;;;16.20;96.50;;;;;;5020026;28;20036;-79
2021/07/18 02:35:57;;;;;;;6.95;4.72;;;16.10;98.20;;;;;;5044544;28;20025;-78
2021/07/18 02:38:23;;;;;;;9.00;6.00;;;15.90;97.30;;;;;;5024213;28;20039;-79
2021/07/18 02:40:49;;;;;;;12.23;5.65;;;15.90;95.60;;;;;;5037473;28;20032;-78
2021/07/18 02:43:14;;;;;;;8.40;5.28;;;15.80;98.40;;;;;;5030609;28;20063;-79
2021/07/18 02:45:40;;;;;;;8.80;5.20;;;15.80;96.50;;;;;;5032125;28;20059;-78
2021/07/18 02:48:06;;;;;;;8.80;5.53;;;15.90;98.00;;;;;;5029882;28;20055;-78
2021/07/18 02:50:31;;;;;;;9.77;5.97;;;15.80;98.20;;;;;;5022310;28;20369;-79
2021/07/18 02:52:57;;;;;;;12.68;6.53;;;15.80;97.50;;;;;;5022304;28;20025;-79
2021/07/18 02:55:22;;;;;;;8.80;6.05;;;15.80;97.60;;;;;;5025711;28;20047;-78
2021/07/18 02:57:48;;;;;;;10.02;5.20;;;15.90;98.70;;;;;;5035092;28;20060;-78
2021/07/18 03:00:18;;;;;;;4.50;3.88;;;15.90;96.10;;;;;;5045774;28;20123;-78
2021/07/18 03:02:44;;;;;;;7.93;5.65;;;15.90;95.90;;;;;;5021300;28;20078;-79
2021/07/18 03:05:10;;;;;;;13.07;5.85;;;15.90;97.80;;;;;;5059762;28;20430;-78
2021/07/18 03:07:37;;;;;;;8.25;5.97;;;15.80;97.60;;;;;;5027957;28;20029;-78
2021/07/18 03:10:03;;;;;;;4.78;3.28;;;15.70;97.00;;;;;;5030520;28;20487;-78
2021/07/18 03:12:31;;;;;;;7.65;5.55;;;15.70;95.20;;;;;;5020903;28;20029;-78
2021/07/18 03:15:00;;;;;;;8.23;5.72;;;15.80;97.20;;;;;;5016239;28;20037;-78
2021/07/18 03:17:26;;;;;;;12.55;5.10;;;15.80;96.80;;;;;;5014133;28;20044;-78
2021/07/18 03:19:52;;;;;;;5.90;3.50;;;15.70;94.60;;;;;;5060990;28;20059;-78
2021/07/18 03:22:18;;;;;;;5.18;3.70;;;15.80;94.00;;;;;;5013434;28;21222;-78
2021/07/18 03:24:44;;;;;;;5.78;3.05;;;15.70;93.80;;;;;;5036195;28;20032;-78
2021/07/18 03:27:09;;;;;;;5.25;3.55;;;15.70;93.90;;;;;;5023871;28;20074;-78
2021/07/18 03:29:35;;;;;;;8.32;4.32;;;15.80;93.60;;;;;;5045081;28;20031;-80
2021/07/18 03:32:00;;;;;;;8.32;4.90;;;15.70;94.00;;;;;;5030562;28;20120;-78
2021/07/18 03:34:26;;;;;;;5.35;3.38;;;15.70;93.60;;;;;;5047717;28;20033;-79
2021/07/18 03:36:51;;;;;;;3.13;2.83;;;15.70;93.70;;;;;;5049954;28;20032;-78
2021/07/18 03:39:17;;;;;;;4.40;3.42;;;15.60;93.50;;;;;;5026068;28;20029;-78
2021/07/18 03:41:42;;;;;;;12.98;4.97;;;15.70;93.60;;;;;;5031706;28;20074;-78
2021/07/18 03:44:08;;;;;;;7.32;4.38;;;15.60;93.60;;;;;;5026757;28;20037;-78
2021/07/18 03:46:33;;;;;;;5.00;4.38;;;15.60;95.00;;;;;;5041417;28;20028;-78
2021/07/18 03:48:59;;;;;;;7.72;5.43;;;15.50;94.00;;;;;;5053383;28;20032;-78
2021/07/18 03:51:24;;;;;;;5.85;3.97;;;15.50;95.90;;;;;;5030999;28;20102;-79
2021/07/18 03:53:50;;;;;;;8.20;5.07;;;15.40;94.00;;;;;;5057314;28;20049;-79
2021/07/18 03:56:17;;;;;;;8.15;5.50;;;15.40;93.80;;;;;;5011972;28;20148;-78
2021/07/18 03:58:43;;;;;;;9.07;5.50;;;15.40;95.90;;;;;;5030116;28;20032;-78
2021/07/18 04:01:12;;;;;;;9.82;5.43;;;15.30;98.20;;;;;;5027899;28;20037;-79
2021/07/18 04:03:38;;;;;;;10.73;6.07;;;15.10;98.50;;;;;;5029423;28;20270;-78
2021/07/18 04:06:04;;;;;;;8.70;5.88;;;15.00;99.10;;;;;;5024795;28;20059;-78
2021/07/18 04:08:30;;;;;;;11.70;5.82;;;15.10;97.70;;;;;;5020579;28;20033;-78
2021/07/18 04:10:56;;;;;;;9.63;5.53;;;15.20;95.40;;;;;;5015081;28;20032;-79
2021/07/18 04:13:21;;;;;;;8.07;5.45;;;15.40;94.90;;;;;;5047205;28;20484;-78
2021/07/18 04:15:47;;;;;;;9.15;6.22;;;15.40;94.80;;;;;;5014147;28;20479;-78
2021/07/18 04:18:13;;;;;;;8.75;6.13;;;15.40;95.20;;;;;;5029901;28;20484;-79
2021/07/18 04:20:38;;;;;;;9.70;6.55;;;15.40;94.60;;;;;;5019904;28;20107;-78
2021/07/18 04:23:04;;;;;;;11.55;6.60;;;15.50;98.00;;;;;;5044327;28;20040;-79
2021/07/18 04:25:29;;;;;;;9.48;5.75;;;15.40;96.80;;;;;;5010662;28;20036;-78
2021/07/18 04:27:55;;;;;;;11.55;6.93;;;15.50;96.60;;;;;;5037118;28;20044;-78
2021/07/18 04:30:21;;;;;;;12.25;8.00;;;15.50;95.20;;;;;;5046522;28;20083;-78
2021/07/18 04:32:47;;;;;;;15.02;6.82;;;15.70;94.80;;;;;;5031764;28;20021;-78
2021/07/18 04:35:14;;;;;;;14.70;8.35;;;15.80;96.20;;;;;;5013142;28;20036;-78
2021/07/18 04:37:40;;;;;;;10.75;6.60;;;15.90;94.80;;;;;;5027736;28;20352;-78
2021/07/18 04:40:06;;;;;;;13.02;7.55;;;16.00;94.40;;;;;;5040777;28;20108;-78
2021/07/18 04:42:31;;;;;;;7.70;4.70;;;16.10;94.20;;;;;;5016757;28;20036;-78
2021/07/18 04:44:57;;;;;;;8.85;5.68;;;16.20;93.60;;;;;;5043587;28;20033;-78
2021/07/18 04:47:23;;;;;;;10.00;5.75;;;16.20;94.10;;;;;;5026758;28;20124;-77
2021/07/18 04:49:50;;;;;;;14.65;7.65;;;16.20;94.80;;;;;;5035751;28;20063;-79
2021/07/18 04:52:17;;;;;;;16.02;8.80;;;16.30;95.00;;;;;;5029278;28;20025;-79
2021/07/18 04:54:43;;;;;;;14.88;9.73;;;16.50;95.60;;;;;;5020900;28;20029;-78
2021/07/18 04:57:08;;;;;;;16.50;7.75;;;16.60;95.70;;;;;;5018518;28;20052;-78
2021/07/18 04:59:35;;;;;;;11.05;6.70;;;16.70;95.50;;;;;;5042619;28;20484;-78
2021/07/18 05:02:00;;;;;;;9.15;6.18;;;16.90;95.80;;;;;;5027562;28;20033;-78
2021/07/18 05:04:26;;;;;;;6.10;5.50;;;17.10;94.90;;;;;;5016915;28;20044;-78
2021/07/18 05:06:51;;;;;;;13.45;7.78;;;17.20;95.60;;;;;;5032906;28;20082;-78
2021/07/18 05:09:17;;;;;;;12.45;7.38;;;17.30;95.10;;;;;;5041190;28;20407;-78
2021/07/18 05:11:42;;;;;;;11.50;7.28;;;17.50;95.00;;;;;;5036909;28;20039;-79
2021/07/18 05:14:08;;;;;;;13.23;7.45;;;17.60;95.10;;;;;;5027207;28;20174;-77
2021/07/18 05:16:33;;;;;;;10.85;7.88;;;17.80;95.00;;;;;;5018338;28;20392;-78
2021/07/18 05:18:59;;;;;;;11.15;6.32;;;18.00;94.80;;;;;;5016555;28;20033;-78
2021/07/18 05:21:24;;;;;;;6.70;5.43;;;18.10;94.80;;;;;;5034003;28;22188;-77
2021/07/18 05:23:50;;;;;;;10.48;8.02;;;18.40;95.00;;;;;;5015714;28;20387;-78
2021/07/18 05:26:15;;;;;;;12.90;8.80;;;18.40;95.40;;;;;;5019394;28;20040;-78
2021/07/18 05:28:41;;;;;;;10.35;7.63;;;18.60;95.10;;;;;;5020241;28;20029;-78
2021/07/18 05:31:06;;;;;;;10.95;8.50;;;18.80;95.30;;;;;;5039802;28;20040;-78
2021/07/18 05:33:32;;;;;;;15.30;8.20;;;19.00;95.90;;;;;;5042989;28;20025;-76
2021/07/18 05:35:57;;;;;;;12.43;8.43;;;19.20;96.40;;;;;;5042058;28;20083;-77
2021/07/18 05:38:23;;;;;;;11.20;8.05;;;19.40;96.30;;;;;;5015630;28;20284;-78
2021/07/18 05:40:49;;;;;;;11.18;7.60;;;19.50;96.00;;;;;;5032878;28;20037;-77
2021/07/18 05:43:14;;;;;;;14.02;8.10;;;19.70;95.70;;;;;;5025702;28;20029;-77
2021/07/18 05:45:40;;;;;;;11.98;7.57;;;19.90;96.30;;;;;;5050984;28;20064;-78
2021/07/18 05:48:05;;;;;;;12.20;7.70;;;20.10;96.40;;;;;;5031327;28;20056;-78
2021/07/18 05:50:31;;;;;;;12.50;7.57;;;20.30;96.80;;;;;;5035093;28;20033;-77
2021/07/18 05:52:56;;;;;;;13.00;7.80;;;20.50;96.60;;;;;;5046296;28;22216;-78
2021/07/18 05:55:23;;;;;;;11.05;6.95;;;20.80;96.60;;;;;;5027326;28;20049;-77
2021/07/18 05:57:53;;;;;;;8.68;6.75;;;20.90;96.10;;;;;;5036585;28;20522;-77
2021/07/18 06:00:19;;;;;;;8.95;6.60;;;21.10;96.20;;;;;;5028170;28;20362;-76
2021/07/18 06:02:44;;;;;;;9.57;6.57;;;21.40;96.00;;;;;;5050546;28;20032;-77
2021/07/18 06:05:10;;;;;;;8.02;7.03;;;21.60;95.70;;;;;;5029865;28;20029;-77
2021/07/18 06:07:36;;;;;;;9.82;6.60;;;21.80;95.40;;;;;;5043035;28;20047;-78
2021/07/18 06:10:11;;;;;;;8.98;6.68;;;21.90;95.30;;;;;;5018548;28;20017;-76
2021/07/18 06:12:37;;;;;;;8.13;6.05;;;22.10;95.40;;;;;;5033319;28;20025;-77
2021/07/18 06:15:05;;;;;;;10.85;6.68;;;22.30;95.30;;;;;;5045098;28;20025;-77
2021/07/18 06:17:30;;;;;;;13.00;7.28;;;22.50;95.00;;;;;;5026402;28;20035;-78
2021/07/18 06:19:56;;;;;;;8.32;5.93;;;22.80;94.90;;;;;;5035804;28;20396;-77
2021/07/18 06:22:21;;;;;;;9.07;5.70;;;22.90;94.50;;;;;;5061020;28;20097;-77
2021/07/18 06:24:47;;;;;;;13.30;6.72;;;23.10;94.40;;;;;;5036714;28;20517;-78
2021/07/18 06:27:12;;;;;;;8.10;5.45;;;23.30;94.30;;;;;;5053304;28;20048;-78
2021/07/18 06:29:38;;;;;;;7.47;5.47;;;23.40;93.90;;;;;;5019423;28;20021;-77
2021/07/18 06:32:05;;;;;;;9.45;5.55;;;23.50;93.80;;;;;;5047215;28;20031;-78
2021/07/18 06:34:30;;;;;;;8.20;5.72;;;23.70;93.30;;;;;;5032219;28;20544;-79
2021/07/18 06:36:56;;;;;;;6.85;4.97;;;23.90;93.00;;;;;;5040836;28;20021;-78
2021/07/18 06:39:21;;;;;;;8.85;5.00;;;24.10;93.10;;;;;;5055417;28;20025;-78
2021/07/18 06:41:47;;;;;;;6.70;5.75;;;24.30;92.80;;;;;;5034570;28;20408;-78
2021/07/18 06:44:12;;;;;;;7.00;4.32;;;24.50;92.60;;;;;;5032830;28;20112;-79
2021/07/18 06:46:40;;;;;;;8.23;4.95;;;24.60;92.30;;;;;;5023302;28;20139;-78
2021/07/18 06:49:05;;;;;;;8.85;4.57;;;24.70;91.90;;;;;;5040416;28;20055;-78
2021/07/18 06:51:31;;;;;;;3.90;3.40;;;25.00;91.20;;;;;;5015681;28;20481;-79
2021/07/18 06:53:57;;;;;;;5.03;3.55;;;25.10;90.90;;;;;;5038448;28;20081;-78
2021/07/18 06:56:23;;;;;;;7.78;3.78;;;25.30;90.30;;;;;;5024812;28;20020;-78
2021/07/18 06:58:48;;;;;;;4.20;2.85;;;25.40;90.40;;;;;;5033464;28;20040;-77
2021/07/18 07:01:14;;;;;;;3.33;2.55;;;25.50;90.50;;;;;;5050844;28;20028;-78
2021/07/18 07:03:40;;;;;;;2.97;2.67;;;25.80;90.20;;;;;;5023323;28;20395;-79
2021/07/18 07:06:05;;;;;;;3.97;2.92;;;25.90;88.30;;;;;;5052603;28;20029;-79
2021/07/18 07:08:31;;;;;;;6.90;3.10;;;26.20;88.10;;;;;;5031301;28;20543;-79
2021/07/18 07:10:56;;;;;;;6.93;2.80;;;26.20;87.90;;;;;;5016186;28;20029;-78
2021/07/18 07:13:22;;;;;;;3.58;2.97;;;26.30;87.30;;;;;;5029952;28;20040;-78
2021/07/18 07:15:47;;;;;;;4.40;2.72;;;26.40;86.70;;;;;;5018282;28;20538;-78
2021/07/18 07:18:13;;;;;;;5.75;2.88;;;26.50;86.00;;;;;;5030119;28;20489;-78
2021/07/18 07:20:38;;;;;;;4.38;2.72;;;26.80;83.80;;;;;;5020896;28;20043;-79
2021/07/18 07:23:04;;;;;;;2.92;2.38;;;26.80;84.70;;;;;;5023635;28;20031;-78
2021/07/18 07:25:30;;;;;;;5.93;2.53;;;26.80;83.00;;;;;;5032765;28;20036;-79
2021/07/18 07:27:56;;;;;;;5.68;2.53;;;26.80;83.50;;;;;;5035446;28;20146;-80
2021/07/18 07:30:21;;;;;;;4.15;2.30;;;27.00;83.10;;;;;;5044465;28;20521;-79
2021/07/18 07:32:47;;;;;;;5.47;2.40;;;27.30;83.70;;;;;;5041955;28;20035;-78
2021/07/18 07:35:13;;;;;;;5.75;2.30;;;27.60;82.00;;;;;;5037167;28;20484;-79
2021/07/18 07:37:40;;;;;;;4.28;2.13;;;27.50;81.60;;;;;;5029484;28;20033;-79
2021/07/18 07:40:06;;;;;;;7.78;2.45;;;27.60;81.80;;;;;;5029849;28;20079;-80
2021/07/18 07:42:32;;;;;;;5.10;2.33;;;27.80;80.30;;;;;;5046241;28;20077;-80
2021/07/18 07:44:57;;;;;;;3.95;2.15;;;27.90;79.20;;;;;;5033403;28;20431;-79
2021/07/18 07:47:23;;;;;;;2.75;1.90;;;28.10;78.00;;;;;;5039709;28;20052;-81
2021/07/18 07:49:48;;;;;;;5.15;2.10;;;28.20;78.20;;;;;;5014493;28;20060;-81
2021/07/18 07:52:14;;;;;;;4.97;1.90;;;28.20;78.70;;;;;;5024794;28;20029;-81
2021/07/18 07:54:40;;;;;;;3.72;1.92;;;28.20;78.50;;;;;;5041142;28;20033;-81
2021/07/18 07:57:06;;;;;;;2.58;1.70;;;28.60;77.00;;;;;;5029598;28;20446;-80
2021/07/18 07:59:32;;;;;;;9.23;2.45;;;28.80;74.70;;;;;;5027347;28;20021;-80
2021/07/18 08:01:58;;;;;;;3.03;2.25;;;28.80;74.90;;;;;;5033486;28;20112;-80
2021/07/18 08:04:24;;;;;;;2.55;1.80;;;28.90;75.00;;;;;;5046101;28;21508;-80
2021/07/18 08:06:50;;;;;;;2.55;1.85;;;28.80;76.00;;;;;;5030776;28;20396;-79
2021/07/18 08:09:15;;;;;;;3.15;2.40;;;29.00;75.80;;;;;;5015455;28;20085;-80
2021/07/18 08:11:41;;;;;;;1.88;1.50;;;29.40;74.10;;;;;;5037333;28;20476;-79
2021/07/18 08:14:06;;;;;;;3.80;1.88;;;29.30;74.00;;;;;;5025396;28;20025;-79
2021/07/18 08:16:32;;;;;;;2.67;1.70;;;29.40;74.80;;;;;;5044402;28;20159;-78
2021/07/18 08:18:57;;;;;;;2.67;1.60;;;29.70;73.70;;;;;;5032216;28;20391;-79
2021/07/18 08:21:23;;;;;;;4.20;1.80;;;30.10;73.10;;;;;;5043799;28;20484;-78
2021/07/18 08:23:51;;;;;;;2.58;2.00;;;30.20;70.70;;;;;;5042250;28;20333;-78
2021/07/18 08:26:17;;;;;;;3.25;2.13;;;30.30;70.20;;;;;;5040026;28;20502;-77
2021/07/18 08:28:43;;;;;;;3.10;1.80;;;30.70;65.90;;;;;;5033950;28;20546;-77
2021/07/18 08:31:09;;;;;;;3.47;1.92;;;30.50;65.70;;;;;;5038393;28;20060;-76
2021/07/18 08:33:34;;;;;;;2.90;1.95;;;30.40;69.10;;;;;;5016682;28;20039;-77
2021/07/18 08:36:00;;;;;;;3.95;2.10;;;30.70;69.30;;;;;;5045258;28;20024;-77
2021/07/18 08:38:25;;;;;;;2.88;1.88;;;30.80;67.60;;;;;;5013486;28;20032;-77
2021/07/18 08:40:51;;;;;;;4.00;2.03;;;31.00;68.80;;;;;;5047446;28;20119;-77
2021/07/18 08:43:17;;;;;;;4.18;2.17;;;31.00;68.30;;;;;;5029457;28;20455;-77
2021/07/18 08:45:42;;;;;;;2.20;1.90;;;31.00;66.30;;;;;;5044232;28;20064;-76
2021/07/18 08:48:08;;;;;;;2.55;1.88;;;31.10;66.70;;;;;;5040453;28;20033;-78
2021/07/18 08:50:34;;;;;;;5.50;1.52;;;31.40;65.00;;;;;;5021440;28;20032;-77
2021/07/18 08:52:59;;;;;;;1.67;1.38;;;31.50;65.60;;;;;;5031236;28;20032;-76
2021/07/18 08:55:25;;;;;;;2.28;1.20;;;31.50;65.60;;;;;;5011996;28;20729;-77
2021/07/18 08:57:51;;;;;;;3.58;1.88;;;31.60;64.30;;;;;;5011556;28;20516;-76
2021/07/18 09:00:17;;;;;;;2.25;1.38;;;31.70;64.40;;;;;;5045487;28;20028;-75
2021/07/18 09:02:43;;;;;;;3.85;2.22;;;31.90;63.90;;;;;;5032983;28;20362;-76
2021/07/18 09:05:09;;;;;;;2.08;1.50;;;31.80;63.80;;;;;;5044521;28;20580;-75
2021/07/18 09:07:51;;;;;;;3.40;2.22;;;31.90;64.30;;;;;;5018188;28;20669;-76
2021/07/18 09:10:36;;;;;;;2.38;1.73;;;32.20;62.20;;;;;;5048869;28;20315;-75
2021/07/18 09:13:02;;;;;;;2.65;1.52;;;32.40;59.30;;;;;;5021125;28;20029;-75
2021/07/18 09:15:49;;;;;;;2.58;1.52;;;32.60;57.80;;;;;;5056522;28;20044;-76
2021/07/18 09:18:18;;;;;;;1.63;1.50;;;32.60;58.30;;;;;;5052664;28;20033;-76
2021/07/18 09:20:54;;;;;;;3.03;1.63;;;32.60;59.10;;;;;;5042814;28;20067;-76
2021/07/18 09:23:28;;;;;;;3.00;1.67;;;32.60;58.60;;;;;;5046655;28;20033;-76
2021/07/18 09:26:24;;;;;;;2.97;2.25;;;32.40;60.10;;;;;;5034991;28;20040;-77
2021/07/18 09:28:50;;;;;;;2.38;1.98;;;32.60;60.60;;;;;;5025353;28;20515;-77
2021/07/18 09:31:31;;;;;;;2.38;1.98;;;32.90;58.60;;;;;;5027533;28;20026;-76
2021/07/18 09:34:13;;;;;;;3.35;2.00;;;33.00;58.60;;;;;;5030509;28;20063;-77
2021/07/18 09:36:38;;;;;;;2.35;1.98;;;33.00;56.70;;;;;;5029706;28;20036;-77
2021/07/18 09:39:11;;;;;;;3.65;1.67;;;33.10;56.90;;;;;;5027316;28;20030;-77
2021/07/18 09:41:43;;;;;;;4.20;2.00;;;32.90;56.90;;;;;;5018498;28;20033;-76
2021/07/18 09:44:09;;;;;;;5.97;2.20;;;33.10;57.90;;;;;;5031241;28;20025;-77
2021/07/18 09:46:36;;;;;;;2.85;2.00;;;33.20;57.70;;;;;;5049762;28;20044;-78
2021/07/18 09:49:03;;;;;;;3.67;1.70;;;33.50;57.30;;;;;;5049382;28;20107;-77
2021/07/18 09:51:32;;;;;;;3.00;1.83;;;33.50;56.80;;;;;;5031897;28;20492;-77
2021/07/18 09:54:11;;;;;;;7.20;2.15;;;33.20;56.50;;;;;;5039406;28;20056;-77
2021/07/18 09:56:37;;;;;;;3.03;1.73;;;33.40;54.10;;;;;;5033729;28;20090;-77
2021/07/18 09:59:03;;;;;;;4.20;1.83;;;33.50;56.00;;;;;;5030336;28;20032;-78
2021/07/18 10:01:28;;;;;;;1.77;1.67;;;33.70;53.60;;;;;;5017188;28;20047;-77
2021/07/18 10:03:54;;;;;;;2.47;1.80;;;33.60;55.10;;;;;;5051055;28;20411;-77
2021/07/18 10:06:23;;;;;;;6.10;2.28;;;33.40;56.70;;;;;;5027844;28;20058;-77
2021/07/18 10:08:50;;;;;;;3.55;2.30;;;33.40;56.70;;;;;;5043882;28;20033;-77
2021/07/18 10:11:17;;;;;;;2.33;1.80;;;33.80;52.20;;;;;;5016990;28;20048;-77
2021/07/18 10:13:44;;;;;;;2.45;1.50;;;33.80;52.30;;;;;;5053541;28;20112;-77
2021/07/18 10:16:10;;;;;;;6.88;1.92;;;33.80;52.40;;;;;;5031326;28;20043;-77
2021/07/18 10:18:36;;;;;;;4.00;1.90;;;33.70;53.20;;;;;;5020134;28;20024;-77
2021/07/18 10:21:02;;;;;;;2.95;2.08;;;33.70;54.40;;;;;;5049036;28;20024;-76
2021/07/18 10:23:27;;;;;;;2.38;2.00;;;33.60;54.90;;;;;;5018995;28;20068;-77
2021/07/18 10:25:53;;;;;;;2.97;2.00;;;33.80;55.20;;;;;;5027974;28;20417;-77
2021/07/18 10:28:21;;;;;;;4.10;2.20;;;33.90;52.60;;;;;;5042588;28;20031;-77
2021/07/18 10:30:47;;;;;;;3.80;1.85;;;34.00;52.60;;;;;;5032206;28;20551;-78
2021/07/18 10:33:16;;;;;;;1.98;1.75;;;34.00;53.10;;;;;;5044839;28;20047;-76
2021/07/18 10:35:42;;;;;;;1.83;1.70;;;34.10;54.20;;;;;;5039582;28;20040;-77
2021/07/18 10:38:33;;;;;;;1.92;1.67;;;34.10;53.30;;;;;;5045762;28;20047;-77
2021/07/18 10:40:58;;;;;;;2.03;1.83;;;34.10;54.30;;;;;;5055487;28;20540;-76
2021/07/18 10:43:38;;;;;;;3.63;1.80;;;34.40;51.10;;;;;;5031461;28;20143;-77
2021/07/18 10:46:07;;;;;;;2.38;2.05;;;34.40;53.20;;;;;;5027767;28;20392;-77
2021/07/18 10:48:48;;;;;;;2.28;1.90;;;34.40;51.80;;;;;;5034692;28;20492;-77
2021/07/18 10:51:17;;;;;;;3.38;2.25;;;34.50;51.90;;;;;;5046028;28;20032;-76
2021/07/18 10:53:43;;;;;;;2.63;2.03;;;34.40;52.60;;;;;;5037417;28;20494;-77
2021/07/18 10:56:09;;;;;;;3.97;2.33;;;34.50;52.70;;;;;;5044131;28;20040;-77
2021/07/18 10:58:38;;;;;;;4.50;2.13;;;34.60;52.80;;;;;;5031568;28;20481;-77
2021/07/18 11:01:26;;;;;;;5.07;2.17;;;35.00;50.50;;;;;;5061676;28;20050;-77
2021/07/18 11:03:52;;;;;;;4.78;2.85;;;34.90;51.70;;;;;;5052160;28;20040;-77
2021/07/18 11:06:22;;;;;;;2.65;1.75;;;34.90;52.80;;;;;;5033334;28;20055;-77
2021/07/18 11:09:06;;;;;;;3.30;2.25;;;35.00;51.40;;;;;;5040132;28;20067;-77
2021/07/18 11:11:57;;;;;;;4.95;1.98;;;35.10;50.60;;;;;;5048223;28;20024;-77
2021/07/18 11:14:31;;;;;;;2.20;2.00;;;35.10;49.80;;;;;;5054976;28;20524;-77
2021/07/18 11:17:20;;;;;;;4.97;2.95;;;34.90;48.90;;;;;;5034914;28;20048;-77
2021/07/18 11:20:00;;;;;;;3.35;2.08;;;34.90;49.10;;;;;;5057099;28;20041;-77
2021/07/18 11:23:04;;;;;;;5.60;2.78;;;35.00;51.20;;;;;;5040048;28;20070;-77
2021/07/18 11:25:43;;;;;;;4.28;2.28;;;35.10;50.90;;;;;;4973671;28;20494;-78
2021/07/18 11:28:27;;;;;;;3.25;2.10;;;35.10;51.30;;;;;;4950476;28;20027;-77
2021/07/18 11:30:52;;;;;;;3.53;2.92;;;35.30;50.20;;;;;;5042859;28;20041;-77
2021/07/18 11:33:28;;;;;;;2.58;2.10;;;35.30;50.30;;;;;;5032323;28;20032;-77
2021/07/18 11:35:54;;;;;;;3.92;2.67;;;35.10;49.40;;;;;;5034640;28;20523;-77
2021/07/18 11:38:20;;;;;;;4.53;1.90;;;35.40;48.30;;;;;;5013708;28;20100;-77
2021/07/18 11:40:45;;;;;;;6.05;2.55;;;35.30;50.00;;;;;;5042856;28;20104;-77
2021/07/18 11:43:11;;;;;;;3.92;1.85;;;35.30;48.80;;;;;;5032084;28;20036;-77
2021/07/18 11:45:37;;;;;;;6.15;2.30;;;35.40;50.30;;;;;;5018068;28;20029;-77
2021/07/18 11:48:03;;;;;;;3.42;2.30;;;35.70;50.10;;;;;;5052411;28;20033;-77
2021/07/18 11:50:29;;;;;;;4.88;2.70;;;35.80;48.00;;;;;;5019801;28;20029;-77
2021/07/18 11:52:54;;;;;;;3.10;2.13;;;35.70;48.20;;;;;;5048226;28;20035;-77
2021/07/18 11:55:20;;;;;;;4.20;2.38;;;35.60;49.60;;;;;;5029442;28;20021;-77
2021/07/18 11:57:45;;;;;;;4.95;1.90;;;35.70;49.80;;;;;;5051873;28;20029;-77
2021/07/18 12:00:11;;;;;;;3.92;2.05;;;35.80;50.70;;;;;;5031720;28;20043;-77
2021/07/18 12:02:39;;;;;;;4.50;2.78;;;35.90;48.30;;;;;;5031752;28;20032;-78
2021/07/18 12:05:06;;;;;;;4.45;1.70;;;35.90;49.10;;;;;;5032533;28;20491;-77
2021/07/18 12:07:31;;;;;;;3.58;2.00;;;35.90;49.50;;;;;;5035020;28;20119;-78
2021/07/18 12:09:57;;;;;;;2.72;2.05;;;36.10;49.90;;;;;;5036044;28;20572;-77
2021/07/18 12:12:22;;;;;;;4.82;2.00;;;36.20;49.80;;;;;;5014513;28;20115;-77
2021/07/18 12:14:48;;;;;;;4.47;2.50;;;36.50;47.50;;;;;;5045238;28;20044;-77
2021/07/18 12:17:13;;;;;;;3.90;2.55;;;36.50;49.00;;;;;;5010403;28;20039;-77
2021/07/18 12:19:39;;;;;;;3.45;1.90;;;36.30;49.40;;;;;;5033184;28;20037;-77
2021/07/18 12:22:15;;;;;;;2.33;1.80;;;36.20;47.50;;;;;;5061139;28;20094;-78
2021/07/18 12:24:42;;;;;;;3.10;1.80;;;35.90;48.60;;;;;;5036407;28;20491;-78
2021/07/18 12:27:09;;;;;;;7.05;2.30;;;36.00;49.60;;;;;;5023289;28;20395;-77
2021/07/18 12:29:38;;;;;;;3.10;2.08;;;36.00;49.90;;;;;;5017798;28;20442;-78
2021/07/18 12:32:04;;;;;;;3.17;1.95;;;36.10;50.50;;;;;;5047772;28;20037;-77
2021/07/18 12:34:32;;;;;;;3.05;1.90;;;36.20;49.60;;;;;;5017207;28;20487;-78
2021/07/18 12:37:10;;;;;;;4.32;2.10;;;36.40;49.00;;;;;;5035534;28;20461;-77
2021/07/18 12:39:36;;;;;;;2.97;2.08;;;36.60;49.20;;;;;;5029372;28;20032;-77
2021/07/18 12:42:04;;;;;;;2.53;1.50;;;36.70;49.50;;;;;;5044245;28;20042;-77
2021/07/18 12:44:33;;;;;;;2.17;1.58;;;36.80;48.30;;;;;;5044146;28;20029;-78